Terminal Aerodrome Forecast
Issued by NWS Knoxville/Tri Cities, TN

Current Version | Previous Version | Text Only | Print | Product List | Glossary On
Versions: 1 2 3 4 5 6 7 8 9 10 11 12 13 14 15 16 17 18 19 20 21 22 23 24 25 26 27 28 29 30 31 32 33 34 35 36 37 38 39 40 41 42 43 44 45 46 47 48 49 50
345
FTUS44 KMRX 101720
TAFTRI
TAF
KTRI 101720Z 1018/1118 26012G22KT P6SM -SHSN OVC035
     FM110000 26009KT P6SM BKN035
     FM110800 27006KT P6SM OVC025
     FM111600 27005KT P6SM OVC035=

USA.gov is the U.S. government's official web portal to all federal, state and local government web resources and services.